createdAt,value
2022-09-02T00:00:09.834Z,3.87
2022-09-02T00:02:39.911Z,3.60
2022-09-02T00:05:10.573Z,3.30
2022-09-02T00:07:43.620Z,3.23
2022-09-02T00:10:11.823Z,3.33
2022-09-02T00:12:40.098Z,3.30
2022-09-02T00:15:09.614Z,3.07
2022-09-02T00:17:39.237Z,2.90
2022-09-02T00:20:11.442Z,3.23
2022-09-02T00:22:39.823Z,3.40
2022-09-02T00:25:09.743Z,3.30
2022-09-02T00:27:38.088Z,3.50
2022-09-02T00:30:08.378Z,3.43
2022-09-02T00:32:36.773Z,3.70
2022-09-02T00:35:08.482Z,3.40
2022-09-02T00:37:36.815Z,3.33
2022-09-02T00:40:07.829Z,3.60
2022-09-02T00:42:36.661Z,3.23
2022-09-02T00:45:08.296Z,3.10
2022-09-02T00:47:37.306Z,3.43
2022-09-02T00:50:11.464Z,3.20
2022-09-02T00:52:46.363Z,3.70
2022-09-02T00:55:22.447Z,3.77
2022-09-02T00:57:57.531Z,3.90
2022-09-02T01:00:34.456Z,3.63
2022-09-02T01:03:08.355Z,3.47
2022-09-02T01:05:43.920Z,3.50
2022-09-02T01:08:13.252Z,3.43
2022-09-02T01:10:44.386Z,3.40
2022-09-02T01:13:19.422Z,3.70
2022-09-02T01:15:54.024Z,3.60
2022-09-02T01:18:29.352Z,3.47
2022-09-02T01:21:00.713Z,3.70
2022-09-02T01:23:34.822Z,3.17
2022-09-02T01:26:04.928Z,3.40
2022-09-02T01:28:34.041Z,3.30
2022-09-02T01:31:02.796Z,3.17
2022-09-02T01:33:31.834Z,3.47
2022-09-02T01:36:01.917Z,3.53
2022-09-02T01:38:33.214Z,3.33
2022-09-02T01:41:01.557Z,3.73
2022-09-02T01:43:31.410Z,3.20
2022-09-02T01:46:01.317Z,3.27
2022-09-02T01:48:31.941Z,3.27
2022-09-02T01:51:04.152Z,2.93
2022-09-02T01:53:34.851Z,3.23
2022-09-02T01:56:03.616Z,3.10
2022-09-02T01:58:34.905Z,3.60
2022-09-02T02:01:03.243Z,3.10
2022-09-02T02:03:32.517Z,2.90
2022-09-02T02:06:01.009Z,3.50
2022-09-02T02:08:30.376Z,3.00
2022-09-02T02:11:01.963Z,3.73
2022-09-02T02:13:32.026Z,3.33
2022-09-02T02:16:00.433Z,3.17
2022-09-02T02:18:29.797Z,3.10
2022-09-02T02:20:58.071Z,3.70
2022-09-02T02:23:26.555Z,3.60
2022-09-02T02:25:54.764Z,3.47
2022-09-02T02:28:24.741Z,3.60
2022-09-02T02:30:54.087Z,3.53
2022-09-02T02:33:23.444Z,3.30
2022-09-02T02:36:04.538Z,3.10
2022-09-02T02:38:32.918Z,3.83
2022-09-02T02:41:03.058Z,3.53
2022-09-02T02:43:32.675Z,3.70
2022-09-02T02:46:01.150Z,3.30
2022-09-02T02:48:54.118Z,3.40
2022-09-02T02:51:22.433Z,3.30
2022-09-02T02:53:55.699Z,3.63
2022-09-02T02:56:26.683Z,3.60
2022-09-02T02:58:56.379Z,3.10
2022-09-02T03:01:25.046Z,3.17
2022-09-02T03:03:54.274Z,2.97
2022-09-02T03:06:26.558Z,2.80
2022-09-02T03:08:56.997Z,3.10
2022-09-02T03:11:27.905Z,3.20
2022-09-02T03:13:59.022Z,3.23
2022-09-02T03:16:27.462Z,3.10
2022-09-02T03:18:56.326Z,3.10
2022-09-02T03:21:24.725Z,3.10
2022-09-02T03:23:53.014Z,3.10
2022-09-02T03:26:25.226Z,3.40
2022-09-02T03:28:56.970Z,3.37
2022-09-02T03:31:29.240Z,3.23
2022-09-02T03:33:58.572Z,3.40
2022-09-02T03:36:31.726Z,3.10
2022-09-02T03:39:01.719Z,3.23
2022-09-02T03:41:55.205Z,3.53
2022-09-02T03:44:23.562Z,3.47
2022-09-02T03:46:53.254Z,3.70
2022-09-02T03:49:22.191Z,3.20
2022-09-02T03:51:50.870Z,3.40
2022-09-02T03:54:19.174Z,3.63
2022-09-02T03:56:47.955Z,3.60
2022-09-02T03:59:17.113Z,3.40
2022-09-02T04:01:46.080Z,3.37
2022-09-02T04:04:22.866Z,3.93
2022-09-02T04:06:58.191Z,3.90
2022-09-02T04:09:28.730Z,3.53
2022-09-02T04:11:56.958Z,3.47
2022-09-02T04:14:25.667Z,3.83
2022-09-02T04:16:54.513Z,4.13
2022-09-02T04:19:24.879Z,3.40
2022-09-02T04:21:53.276Z,3.20
2022-09-02T04:24:21.614Z,3.20
2022-09-02T04:26:52.019Z,3.40
2022-09-02T04:29:20.367Z,3.13
2022-09-02T04:31:51.554Z,3.10
2022-09-02T04:34:20.010Z,3.40
2022-09-02T04:36:53.137Z,3.37
2022-09-02T04:39:22.420Z,3.63
2022-09-02T04:41:53.858Z,3.03
2022-09-02T04:44:22.620Z,3.30
2022-09-02T04:46:51.163Z,3.93
2022-09-02T04:49:23.520Z,3.63
2022-09-02T04:52:01.031Z,3.63
2022-09-02T04:54:30.548Z,3.40
2022-09-02T04:57:01.795Z,3.40
2022-09-02T04:59:30.905Z,3.70
2022-09-02T05:02:05.570Z,3.70
2022-09-02T05:04:34.660Z,3.40
2022-09-02T05:07:05.604Z,3.20
2022-09-02T05:09:40.072Z,3.47
2022-09-02T05:12:09.023Z,3.80
2022-09-02T05:14:45.676Z,3.40
2022-09-02T05:17:14.221Z,3.60
2022-09-02T05:19:45.016Z,3.23
2022-09-02T05:22:16.279Z,3.40
2022-09-02T05:24:45.776Z,3.53
2022-09-02T05:27:16.507Z,3.27
2022-09-02T05:29:46.265Z,3.60
2022-09-02T05:32:17.203Z,3.00
2022-09-02T05:34:47.951Z,3.40
2022-09-02T05:37:17.662Z,3.07
2022-09-02T05:39:46.277Z,3.27
2022-09-02T05:42:16.669Z,3.23
2022-09-02T05:44:47.755Z,2.97
2022-09-02T05:47:20.381Z,3.27
2022-09-02T05:49:49.370Z,3.43
2022-09-02T05:52:19.344Z,3.30
2022-09-02T05:54:50.898Z,2.67
2022-09-02T05:57:23.326Z,3.33
2022-09-02T06:00:00.976Z,2.90
2022-09-02T06:02:47.590Z,2.70
2022-09-02T06:05:22.472Z,3.00
2022-09-02T06:07:59.599Z,2.77
2022-09-02T06:10:28.230Z,2.60
2022-09-02T06:12:56.712Z,2.60
2022-09-02T06:15:30.978Z,2.50
2022-09-02T06:18:00.808Z,2.63
2022-09-02T06:20:32.557Z,2.80
2022-09-02T06:23:08.910Z,2.60
2022-09-02T06:25:41.642Z,2.37
2022-09-02T06:28:11.470Z,2.40
2022-09-02T06:30:45.719Z,2.33
2022-09-02T06:33:14.155Z,2.57
2022-09-02T06:35:46.720Z,2.70
2022-09-02T06:38:20.494Z,2.50
2022-09-02T06:40:52.249Z,2.70
2022-09-02T06:43:26.779Z,2.70
2022-09-02T06:46:08.153Z,2.40
2022-09-02T06:48:38.041Z,2.10
2022-09-02T06:51:08.607Z,2.10
2022-09-02T06:53:38.305Z,1.80
2022-09-02T06:56:10.766Z,2.10
2022-09-02T06:58:41.151Z,2.17
2022-09-02T07:01:15.563Z,2.50
2022-09-02T07:04:02.523Z,1.90
2022-09-02T07:06:37.667Z,2.20
2022-09-02T07:09:10.211Z,2.63
2022-09-02T07:11:39.983Z,2.03
2022-09-02T07:14:10.821Z,2.10
2022-09-02T07:16:46.628Z,2.00
2022-09-02T07:19:20.419Z,2.40
2022-09-02T07:21:50.407Z,2.20
2022-09-02T07:24:20.478Z,2.20
2022-09-02T07:26:49.787Z,2.05
2022-09-02T07:29:23.697Z,2.08
2022-09-02T07:31:52.861Z,2.00
2022-09-02T07:34:22.145Z,1.95
2022-09-02T07:36:51.444Z,1.85
2022-09-02T07:39:23.442Z,1.80
2022-09-02T07:41:53.518Z,2.00
2022-09-02T07:44:24.148Z,2.15
2022-09-02T07:46:54.482Z,2.03
2022-09-02T07:49:24.396Z,2.10
2022-09-02T07:51:54.173Z,1.95
2022-09-02T07:54:27.009Z,1.70
2022-09-02T07:56:57.235Z,1.95
2022-09-02T07:59:25.915Z,1.70
2022-09-02T08:01:57.438Z,1.70
2022-09-02T08:04:31.879Z,1.90
2022-09-02T08:07:24.098Z,1.70
2022-09-02T08:09:54.314Z,1.80
2022-09-02T08:12:22.700Z,2.10
2022-09-02T08:14:51.587Z,1.70
2022-09-02T08:17:19.856Z,1.88
2022-09-02T08:19:48.076Z,1.73
2022-09-02T08:22:16.361Z,1.67
2022-09-02T08:24:44.562Z,1.65
2022-09-02T08:27:14.154Z,1.50
2022-09-02T08:29:42.791Z,1.60
2022-09-02T08:32:11.153Z,1.73
2022-09-02T08:34:39.422Z,1.60
2022-09-02T08:37:08.222Z,1.55
2022-09-02T08:39:36.561Z,1.60
2022-09-02T08:42:16.705Z,1.75
2022-09-02T08:44:45.072Z,1.45
2022-09-02T08:47:21.832Z,1.73
2022-09-02T08:49:53.019Z,1.65
2022-09-02T08:52:40.089Z,1.42
2022-09-02T08:55:12.106Z,1.50
2022-09-02T08:57:43.375Z,1.33
2022-09-02T09:00:15.610Z,1.42
2022-09-02T09:03:01.317Z,1.38
2022-09-02T09:05:41.204Z,1.27
2022-09-02T09:08:21.825Z,1.48
2022-09-02T09:11:00.901Z,1.67
2022-09-02T09:13:59.819Z,1.40
2022-09-02T09:16:40.203Z,1.30
2022-09-02T09:19:14.910Z,1.10
2022-09-02T09:21:45.496Z,1.20
2022-09-02T09:24:27.556Z,1.30
2022-09-02T09:26:56.455Z,1.23
2022-09-02T09:29:26.897Z,1.27
2022-09-02T09:32:00.138Z,1.20
2022-09-02T09:35:00.003Z,1.55
2022-09-02T09:37:36.460Z,1.30
2022-09-02T09:40:31.889Z,1.25
2022-09-02T09:43:15.155Z,1.95
2022-09-02T09:45:47.632Z,1.10
2022-09-02T09:48:27.643Z,1.20
2022-09-02T09:51:15.919Z,1.05
2022-09-02T09:53:45.358Z,1.30
2022-09-02T09:56:38.511Z,1.08
2022-09-02T09:59:41.130Z,1.02
2022-09-02T10:02:22.179Z,1.33
2022-09-02T10:04:51.448Z,1.10
2022-09-02T10:07:39.733Z,1.10
2022-09-02T10:10:19.200Z,1.27
2022-09-02T10:12:49.622Z,1.20
2022-09-02T10:15:22.966Z,1.00
2022-09-02T10:18:01.502Z,1.10
2022-09-02T10:21:04.916Z,1.00
2022-09-02T10:23:48.806Z,1.42
2022-09-02T10:26:27.147Z,1.08
2022-09-02T10:29:27.328Z,0.93
2022-09-02T10:32:14.536Z,0.98
2022-09-02T10:34:58.822Z,1.08
2022-09-02T10:37:35.969Z,1.17
2022-09-02T10:40:15.195Z,1.13
2022-09-02T10:45:59.512Z,1.20
2022-09-02T10:48:43.634Z,1.33
2022-09-02T10:51:21.897Z,1.17
2022-09-02T10:54:08.187Z,0.85
2022-09-02T10:56:46.197Z,1.05
2022-09-02T10:59:20.168Z,1.13
2022-09-02T11:01:55.338Z,0.95
2022-09-02T11:04:38.965Z,0.88
2022-09-02T11:07:13.086Z,1.00
2022-09-02T11:09:48.174Z,1.08
2022-09-02T11:12:21.362Z,1.00
2022-09-02T11:15:02.262Z,0.98
2022-09-02T11:17:39.619Z,0.80
2022-09-02T11:20:18.421Z,1.05
2022-09-02T11:22:56.951Z,1.20
2022-09-02T11:25:29.121Z,1.10
2022-09-02T11:28:07.483Z,1.10
2022-09-02T11:30:45.190Z,1.02
2022-09-02T11:33:20.695Z,1.00
2022-09-02T11:35:50.895Z,1.10
2022-09-02T11:38:36.847Z,1.10
2022-09-02T11:41:43.331Z,1.10
2022-09-02T11:44:52.682Z,0.90
2022-09-02T11:47:51.349Z,1.00
2022-09-02T11:50:48.539Z,1.20
2022-09-02T11:53:25.370Z,0.90
2022-09-02T11:56:00.783Z,1.00
2022-09-02T11:58:39.014Z,1.05
2022-09-02T12:01:31.592Z,1.10
2022-09-02T12:07:33.761Z,1.00
2022-09-02T12:10:06.142Z,1.00
2022-09-02T12:13:10.054Z,1.00
2022-09-02T12:15:40.643Z,0.98
2022-09-02T12:18:15.831Z,0.93
2022-09-02T12:21:21.873Z,1.00
2022-09-02T12:24:12.947Z,0.90
2022-09-02T12:27:10.012Z,1.20
2022-09-02T12:29:39.710Z,1.20
2022-09-02T12:32:10.423Z,1.20
2022-09-02T12:34:56.615Z,1.15
2022-09-02T12:37:55.454Z,0.98
2022-09-02T12:40:40.296Z,0.80
2022-09-02T12:43:30.971Z,1.00
2022-09-02T12:46:24.031Z,1.00
2022-09-02T12:49:04.909Z,0.93
2022-09-02T12:51:57.274Z,0.90
2022-09-02T12:54:37.271Z,1.17
2022-09-02T12:57:06.193Z,0.90
2022-09-02T12:59:39.679Z,0.90
2022-09-02T13:02:43.335Z,0.98
2022-09-02T13:05:23.995Z,0.95
2022-09-02T13:08:56.363Z,1.05
2022-09-02T13:12:04.070Z,0.90
2022-09-02T13:14:55.635Z,0.82
2022-09-02T13:17:48.725Z,0.93
2022-09-02T13:20:53.711Z,1.15
2022-09-02T13:24:14.987Z,0.90
2022-09-02T13:27:11.896Z,0.75
2022-09-02T13:30:08.104Z,0.90
2022-09-02T13:32:37.473Z,1.08
2022-09-02T13:35:11.584Z,0.80
2022-09-02T13:37:43.401Z,1.00
2022-09-02T13:40:25.580Z,1.00
2022-09-02T13:42:56.830Z,0.82
2022-09-02T13:45:28.419Z,0.90
2022-09-02T13:47:58.983Z,0.98
2022-09-02T13:50:30.272Z,0.80
2022-09-02T13:55:52.463Z,1.00
2022-09-02T13:58:34.684Z,0.95
2022-09-02T14:01:22.099Z,1.00
2022-09-02T14:03:53.266Z,1.10
2022-09-02T14:06:27.872Z,1.17
2022-09-02T14:09:00.116Z,0.90
2022-09-02T14:11:30.729Z,1.02
2022-09-02T14:13:59.305Z,0.90
2022-09-02T14:16:34.293Z,0.88
2022-09-02T14:19:08.763Z,0.95
2022-09-02T14:21:38.383Z,0.77
2022-09-02T14:24:12.815Z,1.00
2022-09-02T14:26:45.100Z,0.90
2022-09-02T14:29:16.558Z,1.00
2022-09-02T14:31:47.068Z,1.02
2022-09-02T14:34:34.778Z,1.10
2022-09-02T14:37:25.801Z,1.13
2022-09-02T14:40:11.765Z,0.73
2022-09-02T14:42:47.356Z,1.00
2022-09-02T14:45:16.487Z,1.00
2022-09-02T14:47:46.367Z,1.10
2022-09-02T14:50:23.618Z,0.82
2022-09-02T14:52:59.696Z,0.85
2022-09-02T14:55:52.503Z,1.20
2022-09-02T14:58:26.853Z,1.00
2022-09-02T15:00:58.018Z,1.00
2022-09-02T15:03:29.951Z,1.20
2022-09-02T15:05:58.764Z,1.30
2022-09-02T15:08:27.051Z,1.00
2022-09-02T15:11:00.017Z,1.08
2022-09-02T15:13:33.834Z,0.90
2022-09-02T15:16:03.041Z,0.80
2022-09-02T15:18:32.826Z,0.82
2022-09-02T15:21:01.483Z,1.00
2022-09-02T15:23:33.718Z,0.98
2022-09-02T15:26:03.167Z,0.90
2022-09-02T15:28:31.367Z,1.30
2022-09-02T15:31:00.202Z,1.10
2022-09-02T15:33:55.633Z,0.95
2022-09-02T15:36:26.174Z,1.20
2022-09-02T15:38:54.795Z,1.00
2022-09-02T15:41:27.388Z,1.10
2022-09-02T15:43:55.848Z,1.10
2022-09-02T15:46:27.186Z,0.98
2022-09-02T15:49:02.707Z,1.10
2022-09-02T15:51:31.737Z,0.95
2022-09-02T15:54:02.269Z,0.90
2022-09-02T15:56:33.586Z,1.00
2022-09-02T15:59:10.205Z,1.10
2022-09-02T16:01:41.011Z,0.90
2022-09-02T16:04:15.432Z,1.08
2022-09-02T16:06:54.159Z,1.05
2022-09-02T16:09:22.588Z,0.80
2022-09-02T16:11:53.702Z,1.25
2022-09-02T16:14:24.350Z,0.90
2022-09-02T16:16:55.860Z,1.13
2022-09-02T16:19:30.080Z,1.00
2022-09-02T16:21:59.328Z,1.20
2022-09-02T16:24:27.980Z,0.85
2022-09-02T16:26:56.346Z,0.98
2022-09-02T16:29:28.127Z,1.08
2022-09-02T16:34:49.124Z,1.00
2022-09-02T16:37:17.906Z,0.90
2022-09-02T16:39:53.053Z,1.02
2022-09-02T16:42:21.377Z,1.10
2022-09-02T16:44:53.260Z,1.08
2022-09-02T16:47:21.588Z,1.00
2022-09-02T16:49:51.589Z,1.00
2022-09-02T16:52:25.950Z,1.13
2022-09-02T16:54:54.180Z,0.80
2022-09-02T16:57:22.487Z,0.90
2022-09-02T16:59:51.660Z,1.15
2022-09-02T17:02:20.145Z,0.90
2022-09-02T17:04:48.407Z,1.10
2022-09-02T17:07:18.062Z,0.90
2022-09-02T17:09:46.263Z,0.85
2022-09-02T17:12:14.503Z,1.05
2022-09-02T17:14:42.757Z,1.15
2022-09-02T17:17:14.876Z,0.98
2022-09-02T17:19:43.073Z,0.90
2022-09-02T17:22:11.702Z,1.00
2022-09-02T17:24:42.077Z,0.88
2022-09-02T17:27:10.820Z,1.10
2022-09-02T17:29:55.210Z,0.90
2022-09-02T17:32:23.511Z,1.00
2022-09-02T17:34:51.804Z,1.02
2022-09-02T17:37:20.213Z,0.90
2022-09-02T17:39:50.513Z,1.40
2022-09-02T17:42:17.950Z,1.58
2022-09-02T17:44:46.204Z,0.98
2022-09-02T17:47:18.666Z,1.10
2022-09-02T17:49:47.638Z,0.90
2022-09-02T17:52:19.419Z,1.15
2022-09-02T17:54:52.590Z,1.20
2022-09-02T17:57:42.609Z,1.30
2022-09-02T18:00:13.925Z,1.30
2022-09-02T18:03:24.229Z,1.30
2022-09-02T18:06:05.806Z,1.15
2022-09-02T18:08:43.553Z,1.20
2022-09-02T18:11:15.160Z,1.30
2022-09-02T18:13:54.320Z,1.02
2022-09-02T18:16:32.452Z,1.23
2022-09-02T18:19:19.740Z,1.10
2022-09-02T18:22:05.065Z,0.98
2022-09-02T18:24:49.867Z,1.13
2022-09-02T18:27:33.959Z,1.27
2022-09-02T18:30:07.280Z,1.40
2022-09-02T18:33:06.828Z,1.77
2022-09-02T18:35:50.670Z,1.50
2022-09-02T18:38:28.705Z,1.50
2022-09-02T18:41:16.884Z,1.50
2022-09-02T18:44:00.992Z,1.83
2022-09-02T18:46:45.330Z,1.63
2022-09-02T18:49:15.539Z,1.83
2022-09-02T18:51:45.636Z,1.77
2022-09-02T18:54:19.193Z,1.70
2022-09-02T18:56:53.755Z,2.85
2022-09-02T18:59:32.962Z,3.33
2022-09-02T19:02:13.888Z,2.55
2022-09-02T19:04:42.471Z,2.15
2022-09-02T19:07:30.739Z,2.35
2022-09-02T19:10:01.095Z,2.53
2022-09-02T19:12:35.012Z,1.98
2022-09-02T19:15:10.074Z,2.38
2022-09-02T19:17:46.419Z,2.13
2022-09-02T19:20:15.100Z,2.03
2022-09-02T19:22:48.523Z,2.00
2022-09-02T19:25:22.421Z,2.10
2022-09-02T19:27:52.128Z,1.95
2022-09-02T19:30:24.622Z,1.75
2022-09-02T19:32:56.185Z,2.05
2022-09-02T19:35:29.282Z,1.63
2022-09-02T19:37:58.022Z,1.90
2022-09-02T19:40:32.872Z,1.55
2022-09-02T19:43:03.227Z,1.75
2022-09-02T19:45:36.110Z,1.75
2022-09-02T19:48:07.883Z,1.80
2022-09-02T19:50:37.302Z,2.40
2022-09-02T19:53:05.943Z,1.70
2022-09-02T19:55:35.897Z,1.83
2022-09-02T19:58:04.576Z,2.65
2022-09-02T20:00:34.373Z,2.05
2022-09-02T20:03:03.549Z,1.98
2022-09-02T20:05:32.200Z,1.42
2022-09-02T20:08:00.421Z,2.03
2022-09-02T20:10:30.097Z,2.33
2022-09-02T20:12:59.027Z,3.38
2022-09-02T20:15:27.306Z,2.30
2022-09-02T20:18:09.927Z,2.70
2022-09-02T20:20:38.626Z,1.77
2022-09-02T20:23:06.864Z,1.35
2022-09-02T20:25:49.672Z,1.33
2022-09-02T20:28:25.949Z,1.30
2022-09-02T20:31:05.012Z,1.30
2022-09-02T20:33:45.767Z,1.75
2022-09-02T20:36:24.567Z,1.23
2022-09-02T20:39:16.017Z,1.25
2022-09-02T20:41:53.800Z,1.20
2022-09-02T20:44:39.454Z,1.33
2022-09-02T20:47:29.757Z,1.23
2022-09-02T20:50:39.056Z,1.98
2022-09-02T20:53:27.011Z,1.10
2022-09-02T20:56:01.655Z,1.30
2022-09-02T20:58:43.574Z,1.40
2022-09-02T21:01:18.438Z,1.38
2022-09-02T21:03:52.890Z,1.35
2022-09-02T21:06:27.892Z,1.25
2022-09-02T21:09:03.837Z,1.45
2022-09-02T21:11:39.362Z,1.50
2022-09-02T21:14:13.880Z,1.20
2022-09-02T21:16:48.446Z,1.20
2022-09-02T21:19:24.106Z,1.20
2022-09-02T21:22:02.988Z,1.20
2022-09-02T21:24:38.944Z,1.13
2022-09-02T21:27:15.405Z,1.35
2022-09-02T21:29:48.718Z,1.10
2022-09-02T21:32:25.308Z,1.00
2022-09-02T21:34:57.706Z,1.25
2022-09-02T21:37:31.155Z,1.10
2022-09-02T21:40:06.808Z,1.30
2022-09-02T21:42:48.370Z,1.13
2022-09-02T21:45:24.252Z,1.20
2022-09-02T21:48:00.547Z,1.17
2022-09-02T21:50:42.590Z,1.10
2022-09-02T21:53:21.901Z,1.13
2022-09-02T21:56:00.988Z,1.27
2022-09-02T21:58:58.352Z,1.35
2022-09-02T22:01:44.024Z,1.10
2022-09-02T22:04:32.159Z,1.27
2022-09-02T22:07:20.034Z,1.27
2022-09-02T22:10:08.766Z,1.10
2022-09-02T22:12:41.163Z,1.20
2022-09-02T22:15:17.567Z,1.10
2022-09-02T22:17:51.626Z,1.50
2022-09-02T22:20:23.047Z,1.00
2022-09-02T22:22:56.045Z,1.10
2022-09-02T22:25:27.555Z,1.20
2022-09-02T22:28:04.693Z,1.17
2022-09-02T22:30:34.783Z,1.30
2022-09-02T22:33:08.915Z,1.10
2022-09-02T22:35:42.944Z,1.27
2022-09-02T22:38:25.617Z,1.15
2022-09-02T22:40:59.955Z,1.27
2022-09-02T22:43:41.610Z,1.13
2022-09-02T22:46:34.725Z,1.20
2022-09-02T22:49:26.854Z,1.23
2022-09-02T22:52:23.835Z,1.30
2022-09-02T22:54:52.361Z,1.45
2022-09-02T22:57:41.215Z,1.33
2022-09-02T23:00:11.905Z,1.30
2022-09-02T23:02:48.212Z,1.30
2022-09-02T23:05:45.241Z,1.45
2022-09-02T23:08:16.476Z,1.20
2022-09-02T23:10:54.231Z,1.45
2022-09-02T23:13:37.689Z,1.17
2022-09-02T23:16:15.860Z,1.40
2022-09-02T23:18:57.664Z,1.25
2022-09-02T23:21:35.773Z,1.10
2022-09-02T23:24:15.990Z,1.35
2022-09-02T23:26:53.768Z,1.30
2022-09-02T23:29:26.020Z,1.60
2022-09-02T23:32:16.894Z,1.33
2022-09-02T23:35:16.643Z,1.13
2022-09-02T23:38:17.143Z,1.20
2022-09-02T23:40:51.629Z,1.30
2022-09-02T23:43:20.007Z,0.98
2022-09-02T23:45:49.607Z,1.40
2022-09-02T23:48:44.017Z,1.33
2022-09-02T23:51:20.037Z,1.10
2022-09-02T23:54:06.377Z,1.40
2022-09-02T23:56:53.670Z,1.42
2022-09-02T23:59:49.350Z,1.35
